Time;durP1;ratioP1;P1;durP2;ratioP2;P2;SDS_P1;SDS_P2;PMS_P1;PMS_P2;Temp;Humidity;BMP_temperature;BMP_pressure;BME280_temperature;BME280_humidity;BME280_pressure;Samples;Min_cycle;Max_cycle;Signal;HPM_P1;HPM_P2
2024/04/08 00:01:52;;;;;;;5.95;2.42;;;;;;;10.04;100.00;99896.75;5422997;26;20035;-74
2024/04/08 00:04:18;;;;;;;7.22;2.08;;;;;;;10.06;100.00;99888.94;5443943;26;20014;-74
2024/04/08 00:06:43;;;;;;;5.32;1.83;;;;;;;10.02;100.00;99885.13;5414328;26;20015;-74
2024/04/08 00:09:09;;;;;;;7.50;2.10;;;;;;;10.00;100.00;99873.53;5423747;26;20331;-74
2024/04/08 00:11:34;;;;;;;6.25;2.03;;;;;;;9.94;100.00;99866.41;5454053;26;20101;-74
2024/04/08 00:14:00;;;;;;;10.40;2.40;;;;;;;9.89;100.00;99849.88;5394018;26;20393;-74
2024/04/08 00:16:25;;;;;;;5.85;1.75;;;;;;;9.92;100.00;99852.03;5423031;26;20067;-74
2024/04/08 00:18:51;;;;;;;8.65;2.47;;;;;;;9.88;100.00;99859.31;5424585;26;20011;-74
2024/04/08 00:21:17;;;;;;;7.93;2.22;;;;;;;9.92;100.00;99854.81;5422802;26;20017;-74
2024/04/08 00:23:45;;;;;;;7.78;2.35;;;;;;;9.88;100.00;99847.41;5393914;26;20011;-74
2024/04/08 00:26:10;;;;;;;10.43;2.70;;;;;;;9.88;100.00;99845.44;5423363;26;20011;-74
2024/04/08 00:28:39;;;;;;;9.13;2.33;;;;;;;9.80;100.00;99840.59;5364605;26;20083;-74
2024/04/08 00:31:05;;;;;;;9.77;2.92;;;;;;;9.83;100.00;99848.31;5363499;26;20018;-74
2024/04/08 00:33:31;;;;;;;8.60;2.85;;;;;;;9.76;100.00;99850.69;5423846;26;20010;-74
2024/04/08 00:35:56;;;;;;;9.30;3.00;;;;;;;9.69;100.00;99844.69;5419836;26;20351;-74
2024/04/08 00:38:22;;;;;;;7.70;2.90;;;;;;;9.72;100.00;99847.69;5423772;26;20021;-74
2024/04/08 00:40:47;;;;;;;7.88;3.10;;;;;;;9.72;100.00;99844.06;5392878;26;20004;-74
2024/04/08 00:43:13;;;;;;;7.63;3.40;;;;;;;9.68;100.00;99837.50;5393603;26;20007;-74
2024/04/08 00:45:40;;;;;;;10.82;3.75;;;;;;;9.71;100.00;99829.38;5423046;26;20059;-74
2024/04/08 00:48:06;;;;;;;8.52;3.40;;;;;;;9.65;100.00;99832.56;5423817;26;20006;-74
2024/04/08 00:50:31;;;;;;;7.38;2.80;;;;;;;9.63;100.00;99833.69;5392108;26;20079;-74
2024/04/08 00:52:57;;;;;;;8.45;3.30;;;;;;;9.62;100.00;99836.78;5453220;26;20039;-74
2024/04/08 00:55:22;;;;;;;7.30;3.13;;;;;;;9.60;100.00;99842.59;5393144;26;20002;-74
2024/04/08 00:57:49;;;;;;;9.30;3.10;;;;;;;9.53;100.00;99842.19;5401459;26;20045;-74
2024/04/08 01:00:14;;;;;;;8.68;2.80;;;;;;;9.49;100.00;99838.38;5432940;26;20547;-74
2024/04/08 01:02:40;;;;;;;10.75;3.10;;;;;;;9.54;100.00;99834.69;5402083;26;20010;-74
2024/04/08 01:05:05;;;;;;;8.48;3.05;;;;;;;9.50;100.00;99834.50;5430362;26;20007;-74
2024/04/08 01:07:32;;;;;;;9.00;2.70;;;;;;;9.49;100.00;99827.28;5452178;26;20096;-74
2024/04/08 01:09:58;;;;;;;9.00;2.67;;;;;;;9.52;100.00;99828.63;5420768;26;20518;-74
2024/04/08 01:12:23;;;;;;;9.40;2.70;;;;;;;9.48;100.00;99822.88;5422426;26;20030;-74
2024/04/08 01:14:49;;;;;;;9.20;2.78;;;;;;;9.47;100.00;99821.25;5391450;26;20408;-74
2024/04/08 01:17:16;;;;;;;10.38;3.28;;;;;;;9.43;100.00;99803.56;5452115;26;20025;-74
2024/04/08 01:19:44;;;;;;;7.90;2.55;;;;;;;9.42;100.00;99804.69;5450984;26;20346;-74
2024/04/08 01:22:10;;;;;;;9.80;3.08;;;;;;;9.43;100.00;99814.66;5452780;26;20373;-74
2024/04/08 01:24:36;;;;;;;9.27;3.05;;;;;;;9.37;100.00;99800.06;5390984;26;20021;-74
2024/04/08 01:27:01;;;;;;;9.90;2.75;;;;;;;9.40;100.00;99796.66;5392505;26;20464;-74
2024/04/08 01:29:28;;;;;;;13.32;3.22;;;;;;;9.40;100.00;99784.75;5420653;26;20018;-74
2024/04/08 01:31:53;;;;;;;9.85;3.03;;;;;;;9.38;100.00;99768.44;5390468;26;20544;-74
2024/04/08 01:34:19;;;;;;;9.20;2.90;;;;;;;9.37;100.00;99766.78;5387311;26;20011;-74
2024/04/08 01:36:44;;;;;;;11.85;3.22;;;;;;;9.36;100.00;99773.47;5421673;26;20017;-74
2024/04/08 01:39:10;;;;;;;9.02;3.05;;;;;;;9.37;100.00;99763.22;5389811;26;20007;-74
2024/04/08 01:41:35;;;;;;;7.70;2.40;;;;;;;9.31;100.00;99756.13;5391819;26;20080;-74
2024/04/08 01:44:00;;;;;;;11.63;2.83;;;;;;;9.31;100.00;99739.50;5419654;26;20554;-74
2024/04/08 01:46:26;;;;;;;9.10;2.60;;;;;;;9.31;100.00;99733.94;5453128;26;20060;-74
2024/04/08 01:48:51;;;;;;;8.30;2.83;;;;;;;9.28;100.00;99734.56;5419476;26;20564;-74
2024/04/08 01:51:17;;;;;;;11.63;3.80;;;;;;;9.27;100.00;99732.91;5452655;26;20011;-73
2024/04/08 01:53:42;;;;;;;8.05;2.67;;;;;;;9.20;100.00;99736.06;5419067;26;20795;-74
2024/04/08 01:56:08;;;;;;;11.52;2.78;;;;;;;9.20;100.00;99738.03;5421264;26;20015;-74
2024/04/08 01:58:33;;;;;;;5.97;2.47;;;;;;;9.17;100.00;99731.97;5337316;26;20018;-74
2024/04/08 02:00:59;;;;;;;7.75;2.47;;;;;;;9.12;100.00;99726.50;5422110;26;20017;-74
2024/04/08 02:03:24;;;;;;;10.30;2.40;;;;;;;9.18;100.00;99730.00;5360412;26;20448;-74
2024/04/08 02:05:49;;;;;;;7.75;2.80;;;;;;;9.14;100.00;99735.34;5434287;26;20084;-74
2024/04/08 02:08:15;;;;;;;9.32;3.67;;;;;;;9.13;100.00;99730.91;5430507;26;20377;-74
2024/04/08 02:10:43;;;;;;;10.05;3.03;;;;;;;9.09;100.00;99726.28;5451408;26;20021;-74
2024/04/08 02:13:08;;;;;;;7.97;2.60;;;;;;;9.05;100.00;99722.47;5449804;26;20768;-74
2024/04/08 02:15:34;;;;;;;11.25;3.03;;;;;;;9.01;100.00;99708.41;5409325;26;20110;-74
2024/04/08 02:17:59;;;;;;;9.90;2.65;;;;;;;8.94;100.00;99707.97;5352628;26;20010;-74
2024/04/08 02:20:25;;;;;;;8.48;2.97;;;;;;;8.97;100.00;99707.41;5451591;26;20085;-74
2024/04/08 02:22:51;;;;;;;8.30;3.25;;;;;;;8.97;100.00;99693.53;5420172;26;20354;-74
2024/04/08 02:25:17;;;;;;;8.75;3.20;;;;;;;8.93;100.00;99685.00;5451077;26;20007;-74
2024/04/08 02:27:43;;;;;;;8.45;3.03;;;;;;;8.92;100.00;99704.69;5449768;26;20023;-74
2024/04/08 02:30:09;;;;;;;8.13;3.00;;;;;;;8.91;100.00;99700.28;5421534;26;20056;-74
2024/04/08 02:32:35;;;;;;;10.45;3.50;;;;;;;8.92;100.00;99696.41;5449227;26;20006;-74
2024/04/08 02:35:02;;;;;;;7.05;2.83;;;;;;;8.87;100.00;99699.25;5391931;26;20019;-74
2024/04/08 02:37:27;;;;;;;7.95;2.65;;;;;;;8.82;100.00;99704.88;5423668;26;20022;-74
2024/04/08 02:39:54;;;;;;;7.22;2.47;;;;;;;8.77;100.00;99699.41;5394835;26;20011;-74
2024/04/08 02:42:19;;;;;;;7.55;2.70;;;;;;;8.72;100.00;99690.06;5363547;26;20003;-74
2024/04/08 02:44:46;;;;;;;6.20;3.10;;;;;;;8.67;100.00;99695.69;5424792;26;20067;-74
2024/04/08 02:47:15;;;;;;;5.10;2.30;;;;;;;8.68;100.00;99708.41;5453229;26;20011;-74
2024/04/08 02:49:40;;;;;;;3.92;2.05;;;;;;;8.63;100.00;99708.47;5396833;26;20351;-74
2024/04/08 02:52:06;;;;;;;4.07;2.20;;;;;;;8.62;100.00;99692.19;5390443;26;20015;-74
2024/04/08 02:54:32;;;;;;;8.38;2.50;;;;;;;8.59;100.00;99670.63;5424482;26;20065;-74
2024/04/08 02:56:57;;;;;;;6.57;2.20;;;;;;;8.56;100.00;99662.94;5451338;26;20038;-74
2024/04/08 02:59:23;;;;;;;3.03;2.08;;;;;;;8.50;100.00;99654.72;5434539;26;20018;-74
2024/04/08 03:01:49;;;;;;;6.13;1.95;;;;;;;8.47;100.00;99654.50;5453498;26;20023;-74
2024/04/08 03:04:14;;;;;;;3.47;1.50;;;;;;;8.42;100.00;99644.31;5443503;26;20015;-74
2024/04/08 03:06:39;;;;;;;2.83;1.80;;;;;;;8.41;100.00;99639.09;5443487;26;20482;-74
2024/04/08 03:09:05;;;;;;;3.90;1.60;;;;;;;8.41;100.00;99630.78;5424566;26;20026;-74
2024/04/08 03:11:31;;;;;;;2.88;1.48;;;;;;;8.39;100.00;99622.78;5423747;26;20035;-74
2024/04/08 03:13:56;;;;;;;3.45;1.35;;;;;;;8.39;100.00;99627.50;5448434;26;20011;-74
2024/04/08 03:16:22;;;;;;;2.60;1.40;;;;;;;8.34;100.00;99622.03;5452371;26;20010;-74
2024/04/08 03:18:49;;;;;;;2.47;1.52;;;;;;;8.34;100.00;99622.03;5484871;26;20043;-74
2024/04/08 03:21:15;;;;;;;2.22;1.45;;;;;;;8.36;100.00;99619.75;5483523;26;20017;-74
2024/04/08 03:23:40;;;;;;;3.20;1.33;;;;;;;8.37;100.00;99621.41;5454191;26;20010;-74
2024/04/08 03:26:07;;;;;;;3.28;1.55;;;;;;;8.40;100.00;99618.91;5453611;26;20031;-74
2024/04/08 03:28:32;;;;;;;3.53;1.63;;;;;;;8.37;100.00;99616.69;5484567;26;20018;-74
2024/04/08 03:31:02;;;;;;;2.80;1.33;;;;;;;8.39;100.00;99619.22;5480393;26;20448;-74
2024/04/08 03:33:27;;;;;;;2.65;1.33;;;;;;;8.36;100.00;99608.69;5412257;26;20012;-74
2024/04/08 03:35:53;;;;;;;2.90;1.70;;;;;;;8.41;100.00;99614.19;5408417;26;20013;-74
2024/04/08 03:38:19;;;;;;;3.63;1.55;;;;;;;8.39;100.00;99614.50;5404154;26;20019;-74
2024/04/08 03:40:44;;;;;;;2.53;1.58;;;;;;;8.41;100.00;99600.34;5452634;26;20006;-74
2024/04/08 03:43:10;;;;;;;2.70;1.70;;;;;;;8.44;100.00;99600.59;5453361;26;20025;-74
2024/04/08 03:45:37;;;;;;;2.88;1.58;;;;;;;8.41;100.00;99592.03;5452167;26;20019;-74
2024/04/08 03:48:03;;;;;;;2.50;1.50;;;;;;;8.41;100.00;99584.59;5453685;26;20511;-74
2024/04/08 03:50:29;;;;;;;2.42;1.60;;;;;;;8.39;100.00;99570.22;5452189;26;20027;-74
2024/04/08 03:52:54;;;;;;;2.85;2.00;;;;;;;8.45;100.00;99580.09;5423842;26;20372;-74
2024/04/08 03:55:25;;;;;;;2.80;1.63;;;;;;;8.46;100.00;99575.38;5482009;26;20004;-74
2024/04/08 03:57:50;;;;;;;3.00;1.70;;;;;;;8.47;100.00;99560.41;5400987;26;20004;-74
2024/04/08 04:00:16;;;;;;;3.67;1.67;;;;;;;8.53;100.00;99563.91;5406197;26;20022;-74
2024/04/08 04:02:41;;;;;;;1.70;1.42;;;;;;;8.54;100.00;99551.72;5483746;26;20344;-74
2024/04/08 04:05:07;;;;;;;2.38;1.58;;;;;;;8.56;100.00;99552.25;5398809;26;20562;-74
2024/04/08 04:07:32;;;;;;;3.58;1.77;;;;;;;8.60;100.00;99536.66;5505206;26;20004;-74
2024/04/08 04:10:04;;;;;;;2.28;1.70;;;;;;;8.62;100.00;99551.03;5445497;26;20010;-74
2024/04/08 04:12:33;;;;;;;1.87;1.50;;;;;;;8.63;100.00;99536.03;5446430;26;20016;-74
2024/04/08 04:15:00;;;;;;;2.50;1.52;;;;;;;8.64;100.00;99537.69;5465198;26;20005;-74
2024/04/08 04:17:26;;;;;;;2.42;1.60;;;;;;;8.69;100.00;99530.13;5525468;26;20383;-74
2024/04/08 04:19:51;;;;;;;1.98;1.38;;;;;;;8.66;100.00;99530.75;5434941;26;20037;-74
2024/04/08 04:22:16;;;;;;;2.70;1.77;;;;;;;8.72;100.00;99523.97;5435598;26;20023;-74
2024/04/08 04:24:42;;;;;;;3.05;1.80;;;;;;;8.72;100.00;99517.63;5442299;26;20009;-74
2024/04/08 04:27:07;;;;;;;4.55;1.92;;;;;;;8.70;100.00;99519.88;5465240;26;20046;-74
2024/04/08 04:29:33;;;;;;;3.20;1.90;;;;;;;8.70;100.00;99517.91;5464257;26;20005;-74
2024/04/08 04:31:58;;;;;;;4.05;1.70;;;;;;;8.70;100.00;99509.63;5494376;26;20009;-74
2024/04/08 04:34:24;;;;;;;2.33;1.73;;;;;;;8.71;100.00;99502.94;5518072;26;20474;-74
2024/04/08 04:36:49;;;;;;;2.60;1.63;;;;;;;8.70;100.00;99508.78;5448437;26;20005;-74
2024/04/08 04:39:15;;;;;;;3.05;2.17;;;;;;;8.69;100.00;99501.59;5463482;26;20624;-74
2024/04/08 04:41:40;;;;;;;2.47;1.92;;;;;;;8.73;100.00;99492.38;5435127;26;20006;-74
2024/04/08 04:44:06;;;;;;;3.00;2.00;;;;;;;8.70;100.00;99492.19;5494059;26;20387;-74
2024/04/08 04:46:31;;;;;;;2.17;1.98;;;;;;;8.65;100.00;99484.78;5464865;26;20013;-74
2024/04/08 04:48:56;;;;;;;2.20;2.00;;;;;;;8.67;100.00;99482.53;5463523;26;20111;-74
2024/04/08 04:51:22;;;;;;;2.80;2.10;;;;;;;8.66;100.00;99485.59;5417116;26;20022;-75
2024/04/08 04:53:47;;;;;;;2.30;1.88;;;;;;;8.67;100.00;99468.72;5489594;26;20006;-74
2024/04/08 04:56:13;;;;;;;2.58;1.83;;;;;;;8.68;100.00;99473.09;5464573;26;20018;-74
2024/04/08 04:58:38;;;;;;;2.40;1.73;;;;;;;8.70;100.00;99481.94;5434853;26;20031;-74
2024/04/08 05:01:04;;;;;;;2.35;1.70;;;;;;;8.71;100.00;99472.50;5434783;26;20012;-74
2024/04/08 05:03:29;;;;;;;2.53;1.50;;;;;;;8.71;100.00;99472.50;5493019;26;20017;-74
2024/04/08 05:05:55;;;;;;;2.50;1.88;;;;;;;8.73;100.00;99475.78;5476238;26;20102;-74
2024/04/08 05:08:21;;;;;;;3.10;2.15;;;;;;;8.72;100.00;99457.53;5506863;26;20006;-74
2024/04/08 05:10:46;;;;;;;2.92;2.05;;;;;;;8.75;100.00;99445.03;5495452;25;20438;-74
2024/04/08 05:13:13;;;;;;;4.05;2.20;;;;;;;8.70;100.00;99445.94;5433872;26;20011;-74
2024/04/08 05:15:40;;;;;;;2.70;2.17;;;;;;;8.70;100.00;99459.78;5435858;26;20002;-74
2024/04/08 05:18:05;;;;;;;4.63;2.60;;;;;;;8.71;100.00;99460.59;5404434;26;20018;-74
2024/04/08 05:20:31;;;;;;;2.42;2.05;;;;;;;8.71;100.00;99461.41;5464971;26;20665;-74
2024/04/08 05:22:56;;;;;;;3.28;2.47;;;;;;;8.72;100.00;99456.72;5433499;26;20025;-74
2024/04/08 05:25:22;;;;;;;3.45;2.35;;;;;;;8.71;100.00;99455.06;5527302;26;20056;-74
2024/04/08 05:27:47;;;;;;;5.10;2.10;;;;;;;8.71;100.00;99457.84;5411581;26;20552;-74
2024/04/08 05:30:13;;;;;;;3.90;2.03;;;;;;;8.69;100.00;99460.91;5434548;26;20009;-74
2024/04/08 05:32:38;;;;;;;3.80;2.13;;;;;;;8.70;100.00;99461.75;5438767;26;20024;-74
2024/04/08 05:35:04;;;;;;;4.55;2.10;;;;;;;8.69;100.00;99454.53;5523482;26;20390;-74
2024/04/08 05:37:30;;;;;;;3.10;2.30;;;;;;;8.67;100.00;99454.06;5493321;26;20024;-74
2024/04/08 05:39:55;;;;;;;3.45;2.28;;;;;;;8.61;100.00;99449.72;5447672;26;20013;-74
2024/04/08 05:42:21;;;;;;;2.92;2.05;;;;;;;8.64;100.00;99449.94;5456521;26;20020;-74
2024/04/08 05:44:46;;;;;;;4.38;2.33;;;;;;;8.64;100.00;99458.25;5494777;26;20339;-74
2024/04/08 05:47:11;;;;;;;4.93;2.45;;;;;;;8.59;100.00;99454.75;5463359;26;20010;-74
2024/04/08 05:49:37;;;;;;;3.92;2.30;;;;;;;8.62;100.00;99445.84;5404931;26;20356;-74
2024/04/08 05:52:03;;;;;;;4.97;2.80;;;;;;;8.61;100.00;99456.09;5404550;26;20025;-74
2024/04/08 05:54:28;;;;;;;4.20;2.45;;;;;;;8.61;100.00;99449.72;5464025;26;20006;-74
2024/04/08 05:56:54;;;;;;;5.40;2.50;;;;;;;8.59;100.00;99450.03;5460263;26;20001;-74
2024/04/08 05:59:19;;;;;;;5.20;2.58;;;;;;;8.63;100.00;99458.53;5441552;26;20338;-73
2024/04/08 06:01:45;;;;;;;6.05;2.60;;;;;;;8.62;100.00;99456.91;5463084;26;20024;-74
2024/04/08 06:04:10;;;;;;;4.78;2.63;;;;;;;8.65;100.00;99451.56;5425555;26;20006;-74
2024/04/08 06:06:36;;;;;;;5.93;2.80;;;;;;;8.67;100.00;99443.78;5453539;26;20013;-74
2024/04/08 06:09:08;;;;;;;4.93;2.95;;;;;;;8.75;100.00;99444.19;5450213;26;20021;-74
2024/04/08 06:11:33;;;;;;;4.07;2.75;;;;;;;8.77;100.00;99453.00;5427565;26;20752;-74
2024/04/08 06:13:59;;;;;;;5.05;3.30;;;;;;;8.82;100.00;99450.16;5434327;26;20014;-74
2024/04/08 06:16:24;;;;;;;7.05;3.38;;;;;;;8.83;100.00;99443.47;5462925;26;20041;-71
2024/04/08 06:18:50;;;;;;;3.75;2.70;;;;;;;8.86;100.00;99448.38;5463454;26;20025;-74
2024/04/08 06:21:15;;;;;;;4.20;2.90;;;;;;;8.88;100.00;99432.28;5432463;26;20024;-74
2024/04/08 06:23:41;;;;;;;5.80;3.15;;;;;;;8.94;100.00;99444.91;5433859;26;20005;-75
2024/04/08 06:26:12;;;;;;;4.05;2.95;;;;;;;8.99;100.00;99441.22;5462597;26;20091;-75
2024/04/08 06:28:37;;;;;;;3.85;2.80;;;;;;;9.05;100.00;99426.13;5434031;26;20756;-75
2024/04/08 06:31:03;;;;;;;7.20;3.22;;;;;;;9.10;100.00;99412.97;5492136;26;20100;-74
2024/04/08 06:33:29;;;;;;;3.90;3.08;;;;;;;9.11;100.00;99411.88;5493817;26;20017;-74
2024/04/08 06:35:54;;;;;;;6.40;3.30;;;;;;;9.18;100.00;99405.88;5490905;26;20567;-75
2024/04/08 06:38:20;;;;;;;3.55;2.97;;;;;;;9.20;100.00;99408.34;5463537;26;20006;-75
2024/04/08 06:40:46;;;;;;;4.03;2.78;;;;;;;9.24;100.00;99389.97;5432474;26;20005;-75
2024/04/08 06:43:12;;;;;;;4.72;3.38;;;;;;;9.25;100.00;99383.28;5493770;26;20006;-74
2024/04/08 06:45:37;;;;;;;5.20;2.50;;;;;;;9.30;100.00;99391.47;5462340;26;20085;-74
2024/04/08 06:48:03;;;;;;;3.78;2.40;;;;;;;9.31;100.00;99388.41;5493667;26;20009;-74
2024/04/08 06:50:29;;;;;;;3.88;2.65;;;;;;;9.40;100.00;99388.47;5447995;26;20019;-74
2024/04/08 06:52:54;;;;;;;3.92;2.60;;;;;;;9.39;100.00;99376.59;5459109;26;20628;-75
2024/04/08 06:55:20;;;;;;;3.97;2.60;;;;;;;9.46;100.00;99394.72;5491964;26;20020;-74
2024/04/08 06:57:46;;;;;;;5.00;3.40;;;;;;;9.49;100.00;99369.97;5502060;26;20006;-74
2024/04/08 07:00:11;;;;;;;5.18;2.88;;;;;;;9.52;100.00;99369.31;5442621;26;20020;-74
2024/04/08 07:02:37;;;;;;;3.83;2.70;;;;;;;9.55;100.00;99354.03;5434192;26;20033;-74
2024/04/08 07:05:04;;;;;;;4.53;2.88;;;;;;;9.59;100.00;99357.81;5440750;26;20038;-74
2024/04/08 07:07:30;;;;;;;4.47;2.78;;;;;;;9.61;100.00;99344.44;5449565;26;20007;-74
2024/04/08 07:09:55;;;;;;;6.43;3.20;;;;;;;9.66;100.00;99344.31;5472930;26;20534;-74
2024/04/08 07:12:21;;;;;;;4.15;2.80;;;;;;;9.68;100.00;99342.03;5525621;26;20005;-74
2024/04/08 07:14:50;;;;;;;4.30;3.10;;;;;;;9.73;100.00;99349.44;5461830;26;20006;-75
2024/04/08 07:17:16;;;;;;;4.93;3.60;;;;;;;9.75;100.00;99331.34;5451365;26;20011;-74
2024/04/08 07:19:42;;;;;;;5.38;4.03;;;;;;;9.78;100.00;99330.69;5503787;26;20790;-75
2024/04/08 07:22:07;;;;;;;4.57;3.60;;;;;;;9.83;100.00;99332.50;5476082;26;20020;-75
2024/04/08 07:24:33;;;;;;;4.47;3.67;;;;;;;9.87;100.00;99329.94;5495758;26;20434;-75
2024/04/08 07:26:58;;;;;;;4.90;3.67;;;;;;;9.90;100.00;99335.66;5436444;26;20037;-75
2024/04/08 07:29:24;;;;;;;5.10;3.72;;;;;;;9.92;100.00;99327.84;5435196;26;20102;-75
2024/04/08 07:31:49;;;;;;;4.35;3.50;;;;;;;9.97;100.00;99319.38;5464148;26;20037;-75
2024/04/08 07:34:19;;;;;;;4.63;3.88;;;;;;;10.01;100.00;99309.28;5459711;26;20018;-74
2024/04/08 07:36:45;;;;;;;5.43;3.65;;;;;;;10.05;100.00;99306.69;5527140;26;20080;-75
2024/04/08 07:39:11;;;;;;;7.10;3.75;;;;;;;10.12;100.00;99306.22;5495887;26;20017;-75
2024/04/08 07:41:36;;;;;;;9.95;5.00;;;;;;;10.20;100.00;99303.50;5467024;26;20033;-75
2024/04/08 07:44:03;;;;;;;6.35;3.90;;;;;;;10.25;100.00;99314.44;5496014;26;20009;-75
2024/04/08 07:46:29;;;;;;;7.35;4.90;;;;;;;10.37;100.00;99321.38;5420525;26;20450;-75
2024/04/08 07:48:54;;;;;;;6.53;4.07;;;;;;;10.43;100.00;99320.88;5490612;26;20018;-74
2024/04/08 07:51:20;;;;;;;5.38;4.35;;;;;;;10.51;100.00;99305.41;5494804;26;20073;-75
2024/04/08 07:53:46;;;;;;;6.10;4.15;;;;;;;10.57;100.00;99294.97;5460138;26;20009;-75
2024/04/08 07:56:11;;;;;;;6.38;4.15;;;;;;;10.63;100.00;99296.44;5495656;26;20012;-75
2024/04/08 07:58:37;;;;;;;6.65;4.38;;;;;;;10.70;100.00;99285.69;5436293;26;20021;-74
2024/04/08 08:01:07;;;;;;;7.50;4.28;;;;;;;10.77;100.00;99263.78;5435703;26;20009;-75
2024/04/08 08:03:33;;;;;;;6.32;4.28;;;;;;;10.82;100.00;99246.97;5405969;26;20021;-75
2024/04/08 08:05:58;;;;;;;5.88;4.28;;;;;;;10.88;100.00;99242.88;5416321;26;20469;-75
2024/04/08 08:08:26;;;;;;;5.82;4.18;;;;;;;10.95;100.00;99254.31;5473103;26;20006;-75
2024/04/08 08:10:52;;;;;;;6.55;4.32;;;;;;;11.04;100.00;99254.31;5418071;26;20027;-75
2024/04/08 08:13:18;;;;;;;9.55;4.47;;;;;;;11.14;100.00;99258.72;5466292;26;20015;-74
2024/04/08 08:15:43;;;;;;;6.60;4.15;;;;;;;11.22;100.00;99252.31;5394283;26;20011;-75
2024/04/08 08:18:09;;;;;;;6.43;3.72;;;;;;;11.30;100.00;99243.16;5392415;26;20489;-74
2024/04/08 08:20:34;;;;;;;5.28;3.90;;;;;;;11.42;100.00;99239.69;5423630;26;20007;-75
2024/04/08 08:23:00;;;;;;;5.88;3.75;;;;;;;11.48;100.00;99237.56;5422402;26;20015;-74
2024/04/08 08:25:26;;;;;;;5.88;3.60;;;;;;;11.53;100.00;99237.38;5453111;26;20351;-75
2024/04/08 08:27:52;;;;;;;4.07;3.38;;;;;;;11.61;100.00;99242.91;5422180;26;20012;-74
2024/04/08 08:30:17;;;;;;;5.70;3.85;;;;;;;11.66;100.00;99239.16;5423285;26;20417;-75
2024/04/08 08:32:46;;;;;;;6.05;3.35;;;;;;;11.69;100.00;99241.25;5394516;26;20004;-75
2024/04/08 08:35:11;;;;;;;4.75;3.60;;;;;;;11.76;100.00;99247.16;5372878;26;20019;-75
2024/04/08 08:37:37;;;;;;;5.47;3.10;;;;;;;11.83;100.00;99241.88;5380435;26;20044;-75
2024/04/08 08:40:03;;;;;;;4.70;3.25;;;;;;;11.92;100.00;99222.38;5381433;26;20008;-75
2024/04/08 08:42:29;;;;;;;4.95;3.45;;;;;;;11.99;100.00;99236.59;5385807;26;20503;-75
2024/04/08 08:44:56;;;;;;;3.80;3.03;;;;;;;12.11;100.00;99235.88;5397640;26;20008;-75
2024/04/08 08:47:22;;;;;;;4.78;3.38;;;;;;;12.20;100.00;99221.91;5405295;26;20007;-75
2024/04/08 08:49:52;;;;;;;3.30;2.60;;;;;;;12.25;100.00;99216.16;5404208;26;20546;-75
2024/04/08 08:52:18;;;;;;;5.55;3.17;;;;;;;12.35;100.00;99204.66;5411607;26;20046;-75
2024/04/08 08:54:43;;;;;;;5.78;3.15;;;;;;;12.40;100.00;99215.59;5424484;26;20048;-75
2024/04/08 08:57:11;;;;;;;4.80;3.40;;;;;;;12.48;100.00;99213.88;5357760;26;20018;-75
2024/04/08 08:59:37;;;;;;;5.72;3.20;;;;;;;12.56;100.00;99221.34;5416051;26;20018;-75
2024/04/08 09:02:04;;;;;;;4.50;3.05;;;;;;;12.66;100.00;99215.38;5406333;26;20003;-75
2024/04/08 09:04:30;;;;;;;5.13;3.60;;;;;;;12.74;100.00;99195.00;5415330;26;20052;-75
2024/04/08 09:06:55;;;;;;;4.97;2.90;;;;;;;12.88;100.00;99194.72;5445462;26;20378;-74
2024/04/08 09:09:21;;;;;;;4.35;3.20;;;;;;;13.02;100.00;99182.47;5435580;26;20019;-75
2024/04/08 09:11:47;;;;;;;6.43;3.90;;;;;;;13.08;100.00;99181.91;5392566;25;20021;-76
2024/04/08 09:14:13;;;;;;;4.93;3.60;;;;;;;13.18;100.00;99170.34;5464900;26;20002;-75
2024/04/08 09:16:38;;;;;;;4.45;3.03;;;;;;;13.29;100.00;99164.34;5433473;26;20016;-75
2024/04/08 09:19:03;;;;;;;4.78;3.35;;;;;;;13.38;100.00;99163.09;5419736;26;20002;-75
2024/04/08 09:21:29;;;;;;;3.95;3.03;;;;;;;13.39;100.00;99156.34;5465122;26;20013;-75
2024/04/08 09:24:05;;;;;;;3.33;2.83;;;;;;;13.47;100.00;99142.66;5450214;26;20094;-75
2024/04/08 09:26:31;;;;;;;4.63;3.05;;;;;;;13.51;100.00;99138.84;5480295;26;20005;-75
2024/04/08 09:28:56;;;;;;;4.60;3.00;;;;;;;13.61;100.00;99148.72;5472263;26;20007;-75
2024/04/08 09:31:22;;;;;;;6.95;2.95;;;;;;;13.71;100.00;99147.47;5448143;26;20628;-75
2024/04/08 09:33:47;;;;;;;4.97;2.78;;;;;;;13.90;100.00;99146.84;5511233;26;20009;-75
2024/04/08 09:36:14;;;;;;;8.35;3.58;;;;;;;13.99;100.00;99151.16;5431234;26;20005;-75
2024/04/08 09:38:39;;;;;;;3.85;2.90;;;;;;;14.14;100.00;99157.19;5434352;26;20017;-75
2024/04/08 09:41:05;;;;;;;5.97;3.15;;;;;;;14.23;100.00;99146.72;5433578;26;20037;-75
2024/04/08 09:43:31;;;;;;;3.67;2.75;;;;;;;14.30;100.00;99147.75;5494440;26;20026;-75
2024/04/08 09:45:58;;;;;;;5.00;3.15;;;;;;;14.34;100.00;99141.44;5494057;26;20009;-75
2024/04/08 09:48:24;;;;;;;4.82;2.75;;;;;;;14.37;100.00;99163.91;5504291;26;20087;-75
2024/04/08 09:50:49;;;;;;;4.65;3.30;;;;;;;14.41;100.00;99153.66;5523552;26;20477;-75
2024/04/08 09:53:15;;;;;;;4.13;2.47;;;;;;;14.35;100.00;99169.03;5433693;26;20018;-75
2024/04/08 09:55:41;;;;;;;4.38;2.72;;;;;;;14.37;100.00;99179.84;5441254;26;20041;-75
2024/04/08 09:58:09;;;;;;;6.30;2.90;;;;;;;14.30;100.00;99178.47;5468454;26;20006;-75
2024/04/08 10:00:35;;;;;;;3.95;2.30;;;;;;;14.29;100.00;99164.84;5425813;26;20006;-75
2024/04/08 10:03:05;;;;;;;3.35;2.28;;;;;;;14.26;100.00;99176.72;5495938;26;20012;-75
2024/04/08 10:05:31;;;;;;;3.38;2.30;;;;;;;14.21;100.00;99171.41;5472056;26;20005;-75
2024/04/08 10:07:57;;;;;;;4.90;3.00;;;;;;;14.12;100.00;99165.91;5494433;26;20001;-75
2024/04/08 10:10:23;;;;;;;4.93;3.35;;;;;;;14.11;100.00;99169.06;5462545;26;20010;-75
2024/04/08 10:12:48;;;;;;;7.55;4.18;;;;;;;14.08;100.00;99165.00;5494492;26;20012;-75
2024/04/08 10:15:15;;;;;;;7.10;5.18;;;;;;;14.06;100.00;99168.13;5521746;26;20021;-75
2024/04/08 10:17:44;;;;;;;9.10;5.28;;;;;;;14.03;100.00;99160.44;5463946;26;20073;-75
2024/04/08 10:20:18;;;;;;;7.07;4.22;;;;;;;13.99;100.00;99161.53;5521839;25;20017;-75
2024/04/08 10:22:44;;;;;;;7.20;4.63;;;;;;;13.98;100.00;99174.63;5433128;26;20005;-75
2024/04/08 10:25:42;;;;;;;6.55;3.78;;;;;;;13.96;100.00;99168.63;5411013;26;20005;-75
2024/04/08 10:28:14;;;;;;;6.03;3.42;;;;;;;13.94;100.00;99170.13;5523809;25;20362;-75
2024/04/08 10:30:40;;;;;;;6.45;3.47;;;;;;;13.94;100.00;99159.78;5473007;26;20027;-75
2024/04/08 10:33:05;;;;;;;6.03;3.15;;;;;;;13.93;100.00;99154.53;5516325;26;20010;-75
2024/04/08 10:35:31;;;;;;;5.47;2.80;;;;;;;13.91;100.00;99154.88;5480593;26;20005;-75
2024/04/08 10:37:56;;;;;;;3.90;2.58;;;;;;;13.94;100.00;99150.59;5460413;26;20356;-75
2024/04/08 10:40:23;;;;;;;5.88;2.80;;;;;;;13.95;100.00;99147.44;5463436;26;20024;-75
2024/04/08 10:42:50;;;;;;;5.72;2.83;;;;;;;13.99;100.00;99137.22;5402959;26;20005;-75
2024/04/08 10:45:17;;;;;;;4.18;2.50;;;;;;;14.02;100.00;99138.50;5464502;26;20053;-75
2024/04/08 10:47:42;;;;;;;6.82;2.78;;;;;;;14.03;100.00;99140.09;5492977;26;20462;-75
2024/04/08 10:50:09;;;;;;;5.28;2.83;;;;;;;14.11;100.00;99130.78;5461831;26;20023;-75
2024/04/08 10:52:36;;;;;;;5.72;2.10;;;;;;;14.13;100.00;99128.47;5461158;26;20041;-75
2024/04/08 10:55:01;;;;;;;4.15;2.95;;;;;;;14.18;100.00;99131.03;5523710;25;20016;-75
2024/04/08 10:57:27;;;;;;;2.88;2.13;;;;;;;14.23;100.00;99132.75;5480240;26;20007;-75
2024/04/08 10:59:52;;;;;;;4.05;2.60;;;;;;;14.30;100.00;99131.00;5468463;26;20024;-75
2024/04/08 11:02:18;;;;;;;4.90;2.30;;;;;;;14.39;100.00;99125.25;5465508;26;20009;-75
2024/04/08 11:04:43;;;;;;;4.97;2.17;;;;;;;14.43;100.00;99125.38;5478777;26;20014;-75
2024/04/08 11:07:09;;;;;;;5.65;2.58;;;;;;;14.52;100.00;99118.50;5523050;26;20005;-75
2024/04/08 11:09:35;;;;;;;3.17;2.20;;;;;;;14.58;100.00;99115.47;5422819;26;20468;-75
2024/04/08 11:12:03;;;;;;;6.22;2.85;;;;;;;14.66;100.00;99118.13;5465301;26;20009;-75
2024/04/08 11:14:29;;;;;;;7.15;2.90;;;;;;;14.70;100.00;99112.63;5558702;25;20020;-75
2024/04/08 11:16:59;;;;;;;5.63;2.38;;;;;;;14.81;100.00;99108.16;5464218;26;20005;-75
2024/04/08 11:19:25;;;;;;;5.88;2.50;;;;;;;14.88;100.00;99105.56;5466661;26;20422;-75
2024/04/08 11:21:50;;;;;;;6.28;2.58;;;;;;;14.93;100.00;99090.50;5384377;26;20046;-75
2024/04/08 11:24:16;;;;;;;8.63;2.30;;;;;;;15.06;100.00;99089.25;5465141;26;20009;-75